Aérodrome :
LOGIN :

S'inscrire | Disclaimer

   EN    FR    IT 

 










Légende :    VFR   VFR Marginal   IFR   IFR Intensif   IFR Très Intensif
Visi : 
Plafond : 
>= 8 km
>= 3000ft
5 à 8 km
1000 à 3000 ft
1500m à 5 km
500 à 1000 ft
800 à 1500m
200 à 500 ft
< 800m
< 200 ft
Symboles :   Orages  Brouillard  Fortes neiges  Fortes précipitations  Vent > 20 kt
SIGMETs :   Divers  Orages  Givrage  Turbulence  Onde Orograph.  Cendres Volcan.







- Altitude de l'aérodrome : 302 ft
- Code IATA : CGN


EDDK - Cologne Bonn

DERNIER METAR :
  • 231350Z 36003KT 310V040 9000 SCT023 BKN027 11/04 Q1030 NOSIG

METARs EXPIRÉS :
  • 231320Z 36005KT 330V030 9000 BKN024 10/04 Q1030 NOSIG
  • 231250Z 34005KT 310V010 8000 BKN021 10/04 Q1030 NOSIG
  • 231220Z 31006KT 280V340 8000 BKN022 10/04 Q1030 NOSIG
  • 231150Z 29006KT 260V320 8000 BKN022 10/04 Q1030 NOSIG
  • 231120Z 31005KT 250V360 6000 FEW008 BKN018 09/04 Q1030 NOSIG

TAF TAF EDDK
Valide du 23 à 12h jusqu'au 24 à 18h UTC


231100Z 2312/2418 33006KT 8000 BKN020
BECMG 2318/2321 VRB03KT
BECMG 2410/2413 32008KT
Pas de NOTAMs connus pour ce terrain.



MET'MAP, la Météo Aéronautique d'un coup d'oeil ! - Copyright ORBIFLY Décembre 2007 - Disclaimer

ORBIFLY MET'MAP TEAM :

Programmation & Développement : Alexandra Zaïnal
Conception & Développement : Baudouin d'Aumeries
Co-Programmation & Développement : Marc-Olivier Méhu
Soutien technique & logistique : Manuel Goepfert

Contact : metmap@orbifly.com




SOURCES & CREDITS :

   NOAA